createdAt,value
2022-11-16T00:02:44.330Z,81.26
2022-11-16T00:06:46.432Z,81.55
2022-11-16T00:10:47.925Z,81.49
2022-11-16T00:14:49.501Z,81.15
2022-11-16T00:18:59.633Z,80.98
2022-11-16T00:23:01.213Z,81.11
2022-11-16T00:27:02.972Z,80.68
2022-11-16T00:31:07.196Z,80.85
2022-11-16T00:35:08.807Z,80.64
2022-11-16T00:39:12.882Z,81.12
2022-11-16T00:43:14.406Z,80.76
2022-11-16T00:47:15.966Z,80.67
2022-11-16T00:51:17.539Z,80.78
2022-11-16T00:55:19.098Z,80.58
2022-11-16T00:59:21.354Z,80.50
2022-11-16T01:03:28.943Z,79.71
2022-11-16T01:07:30.484Z,80.14
2022-11-16T01:11:50.812Z,80.14
2022-11-16T01:15:52.828Z,80.83
2022-11-16T01:19:54.321Z,80.50
2022-11-16T01:23:57.172Z,80.54
2022-11-16T01:27:58.738Z,80.70
2022-11-16T01:32:12.133Z,80.63
2022-11-16T01:36:15.196Z,80.31
2022-11-16T01:40:48.565Z,81.47
2022-11-16T01:45:44.167Z,78.99
2022-11-16T01:55:48.623Z,80.69
2022-11-16T02:00:00.698Z,81.04
2022-11-16T02:04:15.823Z,81.12
2022-11-16T02:09:22.263Z,80.84
2022-11-16T02:13:39.629Z,81.01
2022-11-16T02:18:08.163Z,81.00
2022-11-16T02:22:54.704Z,80.46
2022-11-16T02:27:37.052Z,80.74
2022-11-16T02:32:17.114Z,80.91
2022-11-16T02:36:23.455Z,81.20
2022-11-16T02:40:30.648Z,80.79
2022-11-16T02:44:35.988Z,80.59
2022-11-16T02:48:42.720Z,80.27
2022-11-16T02:52:44.653Z,80.62
2022-11-16T02:57:05.097Z,80.23
2022-11-16T03:01:15.112Z,80.59
2022-11-16T03:05:33.059Z,80.17
2022-11-16T03:09:41.597Z,80.28
2022-11-16T03:13:44.794Z,79.80
2022-11-16T03:17:50.076Z,78.67
2022-11-16T03:21:58.017Z,77.83
2022-11-16T03:26:05.166Z,78.10
2022-11-16T03:30:15.180Z,77.63
2022-11-16T03:34:22.688Z,77.33
2022-11-16T03:38:27.112Z,77.83
2022-11-16T03:42:29.596Z,77.22
2022-11-16T03:46:31.986Z,76.87
2022-11-16T03:50:33.936Z,76.73
2022-11-16T03:54:36.598Z,76.29
2022-11-16T03:58:38.114Z,75.80
2022-11-16T04:02:39.834Z,75.49
2022-11-16T04:07:01.302Z,76.18
2022-11-16T04:11:22.662Z,75.35
2022-11-16T04:15:43.645Z,75.62
2022-11-16T04:20:03.710Z,75.64
2022-11-16T04:24:14.996Z,75.50
2022-11-16T04:28:21.712Z,75.45
2022-11-16T04:32:45.765Z,75.43
2022-11-16T04:37:06.312Z,75.80
2022-11-16T04:41:28.048Z,75.46
2022-11-16T04:45:49.595Z,75.49
2022-11-16T04:49:53.381Z,75.45
2022-11-16T04:53:56.165Z,75.07
2022-11-16T04:57:57.752Z,74.76
2022-11-16T05:02:09.957Z,74.59
2022-11-16T05:06:25.720Z,75.12
2022-11-16T05:10:28.008Z,75.08
2022-11-16T05:14:30.230Z,74.65
2022-11-16T05:18:33.252Z,74.02
2022-11-16T05:22:35.592Z,74.03
2022-11-16T05:26:38.622Z,74.35
2022-11-16T05:30:40.221Z,74.17
2022-11-16T05:40:41.485Z,74.28
2022-11-16T05:44:43.233Z,73.85
2022-11-16T05:48:45.191Z,74.00
2022-11-16T05:52:47.643Z,74.11
2022-11-16T05:56:50.702Z,74.12
2022-11-16T06:00:54.387Z,73.89
2022-11-16T06:04:57.078Z,74.24
2022-11-16T06:08:58.652Z,74.22
2022-11-16T06:13:01.854Z,74.44
2022-11-16T06:17:03.960Z,74.44
2022-11-16T06:21:07.080Z,73.86
2022-11-16T06:25:10.797Z,74.29
2022-11-16T06:29:16.140Z,74.47
2022-11-16T06:33:18.132Z,74.41
2022-11-16T06:37:19.879Z,74.39
2022-11-16T06:41:21.760Z,74.50
2022-11-16T06:45:26.216Z,73.78
2022-11-16T06:49:30.752Z,73.90
2022-11-16T06:53:36.306Z,73.86
2022-11-16T06:57:38.771Z,73.85
2022-11-16T07:01:40.821Z,73.41
2022-11-16T07:05:46.631Z,73.33
2022-11-16T07:09:51.304Z,73.69
2022-11-16T07:13:53.878Z,74.01
2022-11-16T07:17:55.755Z,73.40
2022-11-16T07:21:57.553Z,73.42
2022-11-16T07:26:00.820Z,73.95
2022-11-16T07:30:11.393Z,72.89
2022-11-16T07:34:16.337Z,72.95
2022-11-16T07:38:38.989Z,73.24
2022-11-16T07:42:41.940Z,72.36
2022-11-16T07:47:01.757Z,71.89
2022-11-16T07:51:12.436Z,71.64
2022-11-16T07:55:37.564Z,71.50
2022-11-16T07:59:41.790Z,71.75
2022-11-16T08:03:45.503Z,71.13
2022-11-16T08:08:14.261Z,71.28
2022-11-16T08:12:17.595Z,70.57
2022-11-16T08:16:21.304Z,70.31
2022-11-16T08:20:26.240Z,70.28
2022-11-16T08:24:29.552Z,70.42
2022-11-16T08:28:59.121Z,70.10
2022-11-16T08:33:31.052Z,70.47
2022-11-16T08:37:34.172Z,69.83
2022-11-16T08:41:44.306Z,69.57
2022-11-16T08:45:49.903Z,69.96
2022-11-16T08:50:22.990Z,69.66
2022-11-16T08:54:32.802Z,68.70
2022-11-16T08:59:02.043Z,67.91
2022-11-16T09:03:03.935Z,67.50
2022-11-16T09:07:34.655Z,67.52
2022-11-16T09:11:36.880Z,67.47
2022-11-16T09:21:06.680Z,66.68
2022-11-16T09:25:09.870Z,66.83
2022-11-16T09:29:13.654Z,67.20
2022-11-16T09:33:15.317Z,66.88
2022-11-16T09:37:17.017Z,66.81
2022-11-16T09:41:53.507Z,66.72
2022-11-16T09:46:19.547Z,66.17
2022-11-16T09:50:32.716Z,66.29
2022-11-16T09:55:03.318Z,66.54
2022-11-16T09:59:16.675Z,66.13
2022-11-16T10:03:19.733Z,66.00
2022-11-16T10:07:41.783Z,66.44
2022-11-16T10:11:52.808Z,66.45
2022-11-16T10:16:13.541Z,66.17
2022-11-16T10:20:38.789Z,65.26
2022-11-16T10:24:53.759Z,64.78
2022-11-16T10:29:19.289Z,65.06
2022-11-16T10:33:22.779Z,64.79
2022-11-16T10:37:30.312Z,64.77
2022-11-16T10:41:38.165Z,64.11
2022-11-16T10:45:42.880Z,63.16
2022-11-16T10:50:04.294Z,63.92
2022-11-16T10:54:13.893Z,63.83
2022-11-16T10:58:16.074Z,64.01
2022-11-16T11:02:35.486Z,62.69
2022-11-16T11:06:40.165Z,62.85
2022-11-16T11:10:42.333Z,63.63
2022-11-16T11:15:11.713Z,63.37
2022-11-16T11:19:26.194Z,63.85
2022-11-16T11:23:54.399Z,64.06
2022-11-16T11:28:15.003Z,64.11
2022-11-16T11:32:23.783Z,63.92
2022-11-16T11:36:40.478Z,63.70
2022-11-16T11:40:57.932Z,63.80
2022-11-16T11:45:06.630Z,63.23
2022-11-16T11:49:19.404Z,63.67
2022-11-16T11:53:43.534Z,64.00
2022-11-16T11:57:47.923Z,63.63
2022-11-16T12:02:04.963Z,63.52
2022-11-16T12:06:11.245Z,64.19
2022-11-16T12:10:29.091Z,63.69
2022-11-16T12:14:58.368Z,64.24
2022-11-16T12:19:16.763Z,63.82
2022-11-16T12:24:10.371Z,63.27
2022-11-16T12:28:30.507Z,63.81
2022-11-16T12:32:47.799Z,63.33
2022-11-16T12:37:03.768Z,62.73
2022-11-16T12:41:26.618Z,62.63
2022-11-16T12:45:52.837Z,61.92
2022-11-16T12:50:15.814Z,62.70
2022-11-16T12:54:36.332Z,62.54
2022-11-16T12:58:43.780Z,63.02
2022-11-16T13:03:00.041Z,62.88
2022-11-16T13:07:10.425Z,64.03
2022-11-16T13:11:22.764Z,63.53
2022-11-16T13:15:34.775Z,63.88
2022-11-16T13:19:44.172Z,64.32
2022-11-16T13:24:20.101Z,64.94
2022-11-16T13:28:37.149Z,66.64
2022-11-16T13:33:03.740Z,67.16
2022-11-16T13:37:36.442Z,67.99
2022-11-16T13:41:40.490Z,68.70
2022-11-16T13:45:55.945Z,69.50
2022-11-16T13:50:00.182Z,70.59
2022-11-16T13:58:35.464Z,70.59
2022-11-16T14:02:43.430Z,71.51
2022-11-16T14:06:55.407Z,71.58
2022-11-16T14:11:02.852Z,71.85
2022-11-16T14:15:15.867Z,72.48
2022-11-16T14:19:51.889Z,72.78
2022-11-16T14:24:21.390Z,73.60
2022-11-16T14:28:47.192Z,74.04
2022-11-16T14:32:54.742Z,74.12
2022-11-16T14:36:58.282Z,73.43
2022-11-16T14:41:06.479Z,73.80
2022-11-16T14:45:22.651Z,74.16
2022-11-16T14:49:25.988Z,74.64
2022-11-16T14:53:29.278Z,74.92
2022-11-16T14:57:31.096Z,75.45
2022-11-16T15:01:39.720Z,76.48
2022-11-16T15:05:41.415Z,75.73
2022-11-16T15:10:01.363Z,77.04
2022-11-16T15:14:02.970Z,77.56
2022-11-16T15:18:07.273Z,77.27
2022-11-16T15:22:16.883Z,77.91
2022-11-16T15:26:21.479Z,78.17
2022-11-16T15:30:25.874Z,79.78
2022-11-16T15:34:27.746Z,79.93
2022-11-16T15:38:35.323Z,82.37
2022-11-16T15:42:39.309Z,81.15
2022-11-16T15:46:42.912Z,81.73
2022-11-16T15:51:05.059Z,82.79
2022-11-16T15:55:20.790Z,82.53
2022-11-16T15:59:28.278Z,83.25
2022-11-16T16:03:35.012Z,83.92
2022-11-16T16:07:41.445Z,84.22
2022-11-16T16:11:42.950Z,83.85
2022-11-16T16:15:44.519Z,84.13
2022-11-16T16:20:06.310Z,84.71
2022-11-16T16:24:11.666Z,84.23
2022-11-16T16:28:15.589Z,84.50
2022-11-16T16:32:29.370Z,84.46
2022-11-16T16:36:31.207Z,84.31
2022-11-16T16:40:32.794Z,84.14
2022-11-16T16:44:34.615Z,83.59
2022-11-16T16:48:39.098Z,84.17
2022-11-16T16:52:45.514Z,84.44
2022-11-16T16:56:47.526Z,84.33
2022-11-16T17:00:49.307Z,84.29
2022-11-16T17:04:51.244Z,83.74
2022-11-16T17:08:53.208Z,84.08
2022-11-16T17:12:57.846Z,84.13
2022-11-16T17:17:02.135Z,83.60
2022-11-16T17:21:05.622Z,83.58
2022-11-16T17:25:10.512Z,83.49
2022-11-16T17:29:17.566Z,83.46
2022-11-16T17:33:19.122Z,83.69
2022-11-16T17:37:20.695Z,82.70
2022-11-16T17:41:26.127Z,82.51
2022-11-16T17:45:27.654Z,82.02
2022-11-16T17:49:32.774Z,81.00
2022-11-16T17:53:36.042Z,81.08
2022-11-16T17:57:38.175Z,80.61
2022-11-16T18:01:39.856Z,79.94
2022-11-16T18:05:41.623Z,79.88
2022-11-16T18:09:43.124Z,81.43
2022-11-16T18:13:45.218Z,82.41
2022-11-16T18:17:46.953Z,83.22
2022-11-16T18:21:48.937Z,83.18
2022-11-16T18:25:53.939Z,83.60
2022-11-16T18:29:55.603Z,83.91
2022-11-16T18:33:57.213Z,84.02
2022-11-16T18:37:58.718Z,84.12
2022-11-16T18:42:00.489Z,83.29
2022-11-16T18:46:02.065Z,82.02
2022-11-16T18:50:16.352Z,82.40
2022-11-16T18:54:20.696Z,83.97
2022-11-16T18:58:48.859Z,83.33
2022-11-16T19:02:44.696Z,83.99
2022-11-16T19:06:46.564Z,83.58
2022-11-16T19:10:48.112Z,82.87
2022-11-16T19:14:49.642Z,83.04
2022-11-16T19:18:51.566Z,82.31
2022-11-16T19:22:53.337Z,82.10
2022-11-16T19:26:54.878Z,81.34
2022-11-16T19:30:56.536Z,80.58
2022-11-16T19:34:58.253Z,81.63
2022-11-16T19:38:59.882Z,81.75
2022-11-16T19:43:01.513Z,81.75
2022-11-16T19:47:03.105Z,83.46
2022-11-16T19:51:10.562Z,84.66
2022-11-16T19:55:12.166Z,84.24
2022-11-16T19:59:14.020Z,84.98
2022-11-16T20:03:15.589Z,84.29
2022-11-16T20:07:18.027Z,84.97
2022-11-16T20:11:22.077Z,85.76
2022-11-16T20:15:25.406Z,85.18
2022-11-16T20:19:27.254Z,84.86
2022-11-16T20:23:29.155Z,85.64
2022-11-16T20:27:33.397Z,85.61
2022-11-16T20:31:34.937Z,85.88
2022-11-16T20:35:36.486Z,85.76
2022-11-16T20:39:38.025Z,84.96
2022-11-16T20:43:40.559Z,84.24
2022-11-16T20:47:42.089Z,83.90
2022-11-16T20:51:46.058Z,84.71
2022-11-16T20:55:49.118Z,85.71
2022-11-16T20:59:50.655Z,83.33
2022-11-16T21:03:54.949Z,82.83
2022-11-16T21:07:59.430Z,83.40
2022-11-16T21:12:19.620Z,83.64
2022-11-16T21:16:21.322Z,83.23
2022-11-16T21:20:27.920Z,82.37
2022-11-16T21:24:32.021Z,83.07
2022-11-16T21:28:34.132Z,82.43
2022-11-16T21:32:35.698Z,83.92
2022-11-16T21:36:37.421Z,82.47
2022-11-16T21:40:41.403Z,82.31
2022-11-16T21:45:16.648Z,81.74
2022-11-16T21:49:16.870Z,81.11
2022-11-16T21:53:18.734Z,80.53
2022-11-16T21:57:20.465Z,79.92
2022-11-16T22:01:23.681Z,80.31
2022-11-16T22:05:44.329Z,80.85
2022-11-16T22:09:46.816Z,81.25
2022-11-16T22:13:50.782Z,81.97
2022-11-16T22:17:53.345Z,82.93
2022-11-16T22:21:55.748Z,81.81
2022-11-16T22:26:04.018Z,80.77
2022-11-16T22:30:07.124Z,81.24
2022-11-16T22:34:08.811Z,79.44
2022-11-16T22:38:10.994Z,79.34
2022-11-16T22:42:12.478Z,79.49
2022-11-16T22:46:13.985Z,78.50
2022-11-16T22:50:15.542Z,79.03
2022-11-16T22:54:17.108Z,79.74
2022-11-16T22:58:18.572Z,79.75
2022-11-16T23:02:20.177Z,80.54
2022-11-16T23:06:21.900Z,79.61
2022-11-16T23:10:23.547Z,77.91
2022-11-16T23:14:43.651Z,79.18
2022-11-16T23:18:45.738Z,79.35
2022-11-16T23:23:05.848Z,79.46
2022-11-16T23:27:29.861Z,78.10
2022-11-16T23:31:31.340Z,78.63
2022-11-16T23:35:33.228Z,79.06
2022-11-16T23:39:34.774Z,78.68
2022-11-16T23:43:54.747Z,79.15
2022-11-16T23:47:56.373Z,78.00
2022-11-16T23:51:58.208Z,78.96
2022-11-16T23:56:05.743Z,78.11
